Time;durP1;ratioP1;P1;durP2;ratioP2;P2;SDS_P1;SDS_P2;PMS_P1;PMS_P2;Temp;Humidity;BMP_temperature;BMP_pressure;BME280_temperature;BME280_humidity;BME280_pressure;Samples;Min_cycle;Max_cycle;Signal;HPM_P1;HPM_P2
2022/03/23 00:01:10;;;;;;;0.60;0.60;;;;;;;6.91;39.75;96206.13;5091496;28;20952;-52
2022/03/23 00:03:40;;;;;;;0.40;0.30;;;;;;;7.01;39.19;96209.00;5091492;28;20431;-52
2022/03/23 00:06:09;;;;;;;0.30;0.20;;;;;;;7.02;39.92;96213.28;5091374;28;20428;-52
2022/03/23 00:08:37;;;;;;;0.30;0.20;;;;;;;6.98;37.62;96218.16;5091043;28;20464;-52
2022/03/23 00:11:05;;;;;;;0.30;0.20;;;;;;;6.78;39.46;96204.47;5090897;28;20436;-51
2022/03/23 00:13:34;;;;;;;0.40;0.30;;;;;;;6.69;37.98;96199.75;5091654;28;20495;-52
2022/03/23 00:16:05;;;;;;;0.30;0.30;;;;;;;6.59;39.25;96202.09;5091448;28;20460;-52
2022/03/23 00:18:34;;;;;;;0.30;0.20;;;;;;;6.68;40.11;96198.94;5090421;28;20486;-51
2022/03/23 00:21:02;;;;;;;0.30;0.20;;;;;;;6.82;38.33;96197.75;5091202;28;20520;-52
2022/03/23 00:23:31;;;;;;;0.53;0.53;;;;;;;6.68;38.09;96187.63;5091437;28;20425;-50
2022/03/23 00:25:59;;;;;;;0.30;0.20;;;;;;;6.89;38.55;96190.53;5091376;28;20532;-51
2022/03/23 00:28:28;;;;;;;0.30;0.20;;;;;;;6.73;38.31;96190.38;5091388;28;20502;-51
2022/03/23 00:30:57;;;;;;;0.30;0.20;;;;;;;7.02;43.81;96181.63;5094757;28;20432;-52
2022/03/23 00:33:34;;;;;;;0.40;0.30;;;;;;;7.00;40.38;96196.88;5094851;28;20446;-52
2022/03/23 00:36:03;;;;;;;0.30;0.20;;;;;;;7.03;37.73;96191.16;5094753;28;20886;-51
2022/03/23 00:38:32;;;;;;;0.30;0.20;;;;;;;6.74;39.30;96184.88;5095037;28;20804;-52
2022/03/23 00:41:00;;;;;;;0.30;0.20;;;;;;;6.87;47.43;96173.34;5094746;28;20535;-51
2022/03/23 00:43:29;;;;;;;0.30;0.20;;;;;;;6.61;38.54;96157.91;5094667;28;20515;-51
2022/03/23 00:45:57;;;;;;;0.30;0.20;;;;;;;6.54;38.00;96165.91;5094468;28;20944;-51
2022/03/23 00:48:26;;;;;;;0.40;0.20;;;;;;;6.49;39.06;96176.31;5094447;28;20423;-51
2022/03/23 00:50:57;;;;;;;0.30;0.20;;;;;;;6.77;46.84;96165.19;5094443;28;20439;-51
2022/03/23 00:53:25;;;;;;;0.30;0.30;;;;;;;6.64;38.93;96181.97;5094363;28;20532;-51
2022/03/23 00:55:53;;;;;;;0.30;0.20;;;;;;;6.69;38.09;96165.50;5094354;28;20524;-52
2022/03/23 00:58:22;;;;;;;0.43;0.43;;;;;;;6.68;38.75;96191.03;5094375;28;20432;-52
2022/03/23 01:00:51;;;;;;;0.30;0.20;;;;;;;6.55;39.68;96175.44;5094470;28;21014;-52
2022/03/23 01:03:20;;;;;;;0.30;0.20;;;;;;;6.66;38.24;96171.22;5094442;28;20435;-52
2022/03/23 01:05:51;;;;;;;0.30;0.20;;;;;;;6.80;43.80;96184.00;5094073;28;20486;-52
2022/03/23 01:08:20;;;;;;;0.30;0.20;;;;;;;6.54;38.43;96178.25;5094149;28;20467;-52
2022/03/23 01:10:49;;;;;;;0.30;0.20;;;;;;;6.61;41.35;96185.06;5094190;28;20540;-52
2022/03/23 01:13:18;;;;;;;0.30;0.20;;;;;;;6.39;37.79;96191.81;5093923;28;20513;-52
2022/03/23 01:15:46;;;;;;;0.43;0.43;;;;;;;6.17;38.38;96165.13;5093906;28;20428;-52
2022/03/23 01:18:15;;;;;;;0.30;0.20;;;;;;;6.66;38.38;96176.47;5092963;28;20933;-52
2022/03/23 01:20:43;;;;;;;0.30;0.20;;;;;;;6.47;36.92;96183.63;5093820;28;20500;-52
2022/03/23 01:23:12;;;;;;;0.30;0.20;;;;;;;6.59;37.36;96175.75;5094129;28;20428;-52
2022/03/23 01:25:42;;;;;;;0.30;0.20;;;;;;;6.65;38.56;96170.44;5093693;28;20433;-52
2022/03/23 01:28:10;;;;;;;3.43;0.77;;;;;;;6.89;42.36;96176.56;5093770;28;20497;-52
2022/03/23 01:30:39;;;;;;;0.40;0.30;;;;;;;7.15;37.92;96173.53;5093734;28;20464;-52
2022/03/23 01:33:08;;;;;;;0.30;0.20;;;;;;;6.67;37.79;96136.75;5093806;28;20496;-52
2022/03/23 01:35:36;;;;;;;1.17;1.17;;;;;;;6.57;35.95;96180.47;5093658;28;20455;-52
2022/03/23 01:38:05;;;;;;;0.40;0.40;;;;;;;6.39;36.37;96176.84;5093647;28;20939;-52
2022/03/23 01:40:33;;;;;;;0.30;0.23;;;;;;;6.51;37.71;96163.72;5093056;28;20452;-52
2022/03/23 01:43:04;;;;;;;0.30;0.20;;;;;;;6.70;35.95;96177.66;5093719;28;20432;-52
2022/03/23 01:45:32;;;;;;;0.73;0.37;;;;;;;6.63;37.24;96175.09;5093409;28;20861;-52
2022/03/23 01:48:01;;;;;;;0.30;0.20;;;;;;;6.81;55.05;96184.78;5093347;28;20463;-52
2022/03/23 01:50:30;;;;;;;0.30;0.20;;;;;;;6.90;48.04;96180.81;5093663;28;20456;-52
2022/03/23 01:52:58;;;;;;;0.30;0.20;;;;;;;6.50;37.87;96177.13;5093601;28;20971;-52
2022/03/23 01:55:27;;;;;;;0.87;0.73;;;;;;;6.56;34.93;96181.47;5093253;28;20912;-52
2022/03/23 01:57:55;;;;;;;0.80;0.57;;;;;;;6.09;34.43;96119.91;5093184;28;20428;-52
2022/03/23 02:00:28;;;;;;;1.70;0.50;;;;;;;6.59;34.94;96186.31;5093351;28;20524;-52
2022/03/23 02:02:57;;;;;;;0.40;0.30;;;;;;;6.43;36.42;96155.31;5093171;28;20811;-52
2022/03/23 02:05:26;;;;;;;0.30;0.20;;;;;;;6.45;33.55;96177.78;5093038;28;20468;-52
2022/03/23 02:07:56;;;;;;;0.30;0.20;;;;;;;6.69;33.17;96174.22;5093068;28;20889;-52
2022/03/23 02:10:28;;;;;;;0.70;0.40;;;;;;;6.55;34.57;96157.00;5092967;28;20811;-52
2022/03/23 02:12:56;;;;;;;0.30;0.20;;;;;;;6.55;37.35;96167.53;5093123;28;20499;-52
2022/03/23 02:15:28;;;;;;;0.30;0.20;;;;;;;6.62;33.23;96167.41;5091352;28;20457;-52
2022/03/23 02:17:57;;;;;;;0.30;0.30;;;;;;;6.60;32.24;96166.84;5092754;28;20420;-52
2022/03/23 02:20:26;;;;;;;0.37;0.27;;;;;;;6.49;32.47;96165.78;5092541;28;20433;-52
2022/03/23 02:22:56;;;;;;;0.30;0.20;;;;;;;6.25;32.74;96156.94;5092548;28;20479;-52
2022/03/23 02:25:26;;;;;;;0.30;0.20;;;;;;;6.45;33.02;96174.34;5092758;28;20499;-52
2022/03/23 02:27:56;;;;;;;0.30;0.20;;;;;;;6.64;35.49;96170.63;5092578;28;20464;-52
2022/03/23 02:30:25;;;;;;;0.97;0.97;;;;;;;6.91;38.77;96169.22;5092514;28;20508;-52
2022/03/23 02:32:53;;;;;;;0.30;0.20;;;;;;;7.24;36.29;96182.72;5092159;28;20774;-52
2022/03/23 02:35:21;;;;;;;0.57;0.57;;;;;;;6.89;35.96;96176.56;5091448;28;20486;-52
2022/03/23 02:37:50;;;;;;;0.30;0.20;;;;;;;6.75;34.59;96175.97;5092652;28;20449;-52
2022/03/23 02:40:20;;;;;;;0.30;0.20;;;;;;;6.77;33.69;96175.72;5092570;28;20427;-52
2022/03/23 02:42:48;;;;;;;0.30;0.20;;;;;;;6.64;38.76;96186.44;5092607;28;20863;-52
2022/03/23 02:45:18;;;;;;;1.00;0.53;;;;;;;6.50;32.60;96177.13;5092557;28;20444;-52
2022/03/23 02:47:46;;;;;;;0.30;0.30;;;;;;;6.61;33.69;96179.78;5091237;28;20436;-52
2022/03/23 02:50:15;;;;;;;0.30;0.20;;;;;;;6.67;32.02;96184.16;5092520;28;20520;-52
2022/03/23 03:04:08;;;;;;;0.30;0.20;;;;;;;6.24;31.47;96188.78;5091985;28;20443;-52
2022/03/23 03:06:36;;;;;;;1.60;1.50;;;;;;;6.26;33.25;96182.25;5091946;28;20467;-52
2022/03/23 03:09:05;;;;;;;0.43;0.43;;;;;;;6.28;33.14;96189.94;5091711;28;20563;-52
2022/03/23 03:11:37;;;;;;;0.60;0.60;;;;;;;6.35;30.86;96186.19;5092260;28;20513;-52
2022/03/23 03:14:06;;;;;;;0.40;0.30;;;;;;;6.27;32.83;96198.88;5092207;28;20546;-52
2022/03/23 03:16:34;;;;;;;0.80;0.80;;;;;;;6.34;32.70;96200.41;5091763;28;20481;-52
2022/03/23 03:19:05;;;;;;;0.30;0.20;;;;;;;6.28;32.33;96200.44;5091969;28;20482;-52
2022/03/23 03:21:33;;;;;;;0.40;0.30;;;;;;;6.11;31.83;96218.69;5091874;28;20431;-52
2022/03/23 03:24:02;;;;;;;0.30;0.20;;;;;;;6.43;44.06;96206.16;5092095;28;20512;-52
2022/03/23 03:26:31;;;;;;;0.40;0.33;;;;;;;6.33;36.09;96198.78;5091913;28;20512;-52
2022/03/23 03:29:02;;;;;;;0.30;0.20;;;;;;;6.40;34.42;96199.50;5091174;28;20886;-52
2022/03/23 03:31:30;;;;;;;0.30;0.20;;;;;;;6.16;32.36;96202.22;5091504;28;20493;-52
2022/03/23 03:33:59;;;;;;;0.40;0.30;;;;;;;6.07;35.44;96199.06;5092134;28;20464;-52
2022/03/23 03:36:27;;;;;;;0.30;0.20;;;;;;;6.15;33.05;96190.06;5091793;28;20937;-52
2022/03/23 03:38:55;;;;;;;0.30;0.30;;;;;;;6.03;32.86;96192.66;5091773;28;20960;-52
2022/03/23 03:41:24;;;;;;;0.30;0.20;;;;;;;6.37;34.32;96192.03;5091527;28;20958;-52
2022/03/23 03:43:52;;;;;;;0.60;0.60;;;;;;;6.31;34.34;96200.03;5090467;28;20511;-52
2022/03/23 03:46:22;;;;;;;0.30;0.20;;;;;;;6.44;33.94;96205.13;5091358;28;20515;-52
2022/03/23 03:48:51;;;;;;;0.30;0.20;;;;;;;6.31;33.73;96205.28;5091606;28;20467;-51
2022/03/23 03:51:19;;;;;;;0.30;0.20;;;;;;;6.12;33.61;96201.06;5091939;28;20444;-51
2022/03/23 03:53:49;;;;;;;0.30;0.20;;;;;;;6.30;34.32;96201.84;5091932;28;20563;-51
2022/03/23 03:56:17;;;;;;;0.70;0.70;;;;;;;6.31;41.12;96206.09;5091629;28;20528;-51
2022/03/23 03:58:46;;;;;;;0.30;0.20;;;;;;;6.13;34.38;96203.47;5091941;28;20416;-51
2022/03/23 04:01:14;;;;;;;0.47;0.47;;;;;;;6.30;38.37;96195.78;5091019;28;20429;-51
2022/03/23 04:03:44;;;;;;;0.77;0.60;;;;;;;5.85;35.09;96208.41;5093832;28;20413;-51
2022/03/23 04:06:12;;;;;;;1.10;1.07;;;;;;;6.12;35.05;96207.09;5094239;28;20475;-52
2022/03/23 04:08:41;;;;;;;0.30;0.20;;;;;;;6.04;36.60;96204.78;5095226;28;20550;-52
2022/03/23 04:11:09;;;;;;;0.30;0.20;;;;;;;6.50;45.65;96206.09;5095187;28;20526;-51
2022/03/23 04:13:38;;;;;;;1.33;0.90;;;;;;;5.99;35.76;96202.00;5095248;28;20464;-51
2022/03/23 04:16:06;;;;;;;0.30;0.30;;;;;;;6.20;40.65;96214.72;5094244;28;20474;-51
2022/03/23 04:18:35;;;;;;;0.63;0.40;;;;;;;5.97;35.99;96217.19;5093830;28;20469;-52
2022/03/23 04:21:05;;;;;;;1.77;0.80;;;;;;;5.96;35.96;96215.59;5094827;28;21049;-51
2022/03/23 04:23:34;;;;;;;0.30;0.20;;;;;;;6.19;37.59;96204.41;5094514;28;20424;-52
2022/03/23 04:26:03;;;;;;;1.80;0.57;;;;;;;6.11;39.80;96223.13;5094690;28;20432;-50
2022/03/23 04:28:31;;;;;;;0.97;0.97;;;;;;;5.90;39.94;96211.19;5094783;28;20454;-50
2022/03/23 04:31:01;;;;;;;0.30;0.20;;;;;;;5.99;37.42;96209.91;5094763;28;20463;-50
2022/03/23 04:33:29;;;;;;;4.47;1.17;;;;;;;5.94;37.74;96215.03;5094582;28;20842;-51
2022/03/23 04:35:58;;;;;;;0.30;0.20;;;;;;;5.76;37.01;96210.50;5094235;28;20489;-50
2022/03/23 04:38:27;;;;;;;0.30;0.20;;;;;;;5.74;37.16;96211.75;5094671;28;21058;-50
2022/03/23 04:40:57;;;;;;;0.50;0.40;;;;;;;5.65;37.70;96205.13;5094464;28;20472;-51
2022/03/23 04:43:25;;;;;;;0.30;0.20;;;;;;;5.86;46.12;96212.66;5094653;28;20482;-51
2022/03/23 04:45:54;;;;;;;0.30;0.20;;;;;;;6.32;40.30;96218.22;5094640;28;20433;-50
2022/03/23 04:48:22;;;;;;;0.30;0.20;;;;;;;5.94;38.69;96199.22;5094409;28;20486;-51
2022/03/23 04:50:52;;;;;;;0.30;0.20;;;;;;;5.77;37.53;96208.66;5094028;28;20941;-50
2022/03/23 04:53:21;;;;;;;0.30;0.20;;;;;;;5.98;38.02;96221.44;5094118;28;20452;-50
2022/03/23 04:55:51;;;;;;;0.50;0.50;;;;;;;6.21;36.73;96223.44;5093187;28;20481;-51
2022/03/23 04:58:19;;;;;;;0.30;0.20;;;;;;;5.90;37.27;96220.91;5094023;28;20511;-50
2022/03/23 05:00:48;;;;;;;0.80;0.37;;;;;;;6.01;37.35;96226.28;5093898;28;20454;-51
2022/03/23 05:03:16;;;;;;;0.30;0.20;;;;;;;5.79;37.99;96217.94;5094291;28;20412;-51
2022/03/23 05:05:45;;;;;;;0.30;0.20;;;;;;;5.82;37.88;96215.91;5093952;28;20432;-51
2022/03/23 05:08:13;;;;;;;1.17;0.30;;;;;;;5.97;36.98;96224.31;5092403;28;20466;-50
2022/03/23 05:10:42;;;;;;;0.30;0.20;;;;;;;5.99;38.75;96212.53;5093928;28;20535;-51
2022/03/23 05:13:12;;;;;;;0.30;0.20;;;;;;;6.18;36.42;96227.31;5093896;28;20420;-51
2022/03/23 05:15:40;;;;;;;0.30;0.20;;;;;;;5.98;38.05;96212.75;5092933;28;20579;-51
2022/03/23 05:18:09;;;;;;;1.03;1.03;;;;;;;5.08;41.13;96004.69;5093456;28;21186;-51
2022/03/23 05:20:37;;;;;;;0.40;0.40;;;;;;;6.00;37.43;96229.09;5093004;28;20487;-51
2022/03/23 05:23:06;;;;;;;2.30;0.70;;;;;;;5.95;39.01;96227.13;5093610;28;20431;-51
2022/03/23 05:25:34;;;;;;;0.40;0.30;;;;;;;5.88;38.01;96221.13;5093423;28;20928;-51
2022/03/23 05:28:03;;;;;;;0.40;0.30;;;;;;;6.02;41.56;96233.13;5093640;28;20519;-51
2022/03/23 05:30:33;;;;;;;0.30;0.20;;;;;;;6.29;41.87;96238.94;5093513;28;20412;-51
2022/03/23 05:33:01;;;;;;;0.30;0.20;;;;;;;6.36;39.90;96219.41;5093442;28;20426;-50
2022/03/23 05:35:30;;;;;;;0.40;0.30;;;;;;;6.11;39.12;96236.28;5093167;28;20464;-51
2022/03/23 05:37:58;;;;;;;3.50;2.33;;;;;;;6.20;45.11;96248.94;5093262;28;20490;-51
2022/03/23 05:40:26;;;;;;;0.30;0.20;;;;;;;6.39;39.85;96240.03;5093085;28;20519;-51
2022/03/23 05:42:55;;;;;;;1.57;0.40;;;;;;;6.62;38.73;96247.25;5092282;28;20463;-51
2022/03/23 05:45:24;;;;;;;0.30;0.20;;;;;;;6.57;41.71;96180.47;5092936;28;20940;-51
2022/03/23 05:47:56;;;;;;;0.40;0.30;;;;;;;6.85;39.97;96243.91;5093164;28;20464;-52
2022/03/23 05:50:24;;;;;;;0.30;0.23;;;;;;;6.63;37.87;96248.06;5092947;28;20992;-51
2022/03/23 05:52:52;;;;;;;0.30;0.20;;;;;;;6.62;37.00;96249.06;5092876;28;20432;-52
2022/03/23 05:55:21;;;;;;;0.40;0.33;;;;;;;6.90;40.60;96257.22;5092727;28;20610;-51
2022/03/23 05:57:49;;;;;;;0.40;0.20;;;;;;;6.99;37.78;96245.34;5092850;28;20520;-51
2022/03/23 06:00:19;;;;;;;0.30;0.20;;;;;;;7.35;36.94;96247.88;5092598;28;20456;-51
2022/03/23 06:02:50;;;;;;;0.50;0.50;;;;;;;7.95;35.62;96237.13;5092782;28;20417;-51
2022/03/23 06:05:20;;;;;;;0.30;0.20;;;;;;;8.13;33.42;96251.03;5092613;28;20424;-51
2022/03/23 06:07:48;;;;;;;0.30;0.20;;;;;;;8.28;34.07;96254.03;5092620;28;20475;-51
2022/03/23 06:10:17;;;;;;;0.37;0.30;;;;;;;8.69;35.23;96245.09;5092647;28;20511;-51
2022/03/23 06:12:45;;;;;;;0.33;0.27;;;;;;;9.09;35.57;96253.00;5092703;28;20879;-51
2022/03/23 06:15:14;;;;;;;0.40;0.30;;;;;;;8.99;31.19;96238.78;5092415;28;20545;-51
2022/03/23 06:17:42;;;;;;;0.87;0.47;;;;;;;9.02;31.12;96247.06;5092670;28;20468;-51
2022/03/23 06:20:13;;;;;;;0.40;0.30;;;;;;;9.49;32.10;96243.13;5092613;28;20463;-51
2022/03/23 06:22:43;;;;;;;5.90;0.87;;;;;;;9.27;30.21;96244.84;5092770;28;20503;-50
2022/03/23 06:25:11;;;;;;;0.30;0.20;;;;;;;9.94;30.36;96229.00;5092408;28;20507;-50
2022/03/23 06:27:40;;;;;;;0.50;0.30;;;;;;;9.81;30.53;96224.03;5091724;28;20515;-50
2022/03/23 06:30:09;;;;;;;0.30;0.20;;;;;;;9.84;32.87;96228.88;5092373;28;20448;-50
2022/03/23 06:32:37;;;;;;;0.30;0.20;;;;;;;10.70;32.96;96222.91;5092042;28;20462;-50
2022/03/23 06:35:08;;;;;;;0.30;0.20;;;;;;;10.69;29.07;96219.44;5092656;28;20468;-50
2022/03/23 06:37:37;;;;;;;0.40;0.30;;;;;;;10.91;29.62;96219.41;5092310;28;20489;-50
2022/03/23 06:40:08;;;;;;;0.30;0.20;;;;;;;11.35;27.57;96220.94;5092512;28;20499;-50
2022/03/23 06:42:36;;;;;;;0.30;0.20;;;;;;;10.50;27.66;96218.13;5092049;28;20890;-49
2022/03/23 06:45:06;;;;;;;0.30;0.30;;;;;;;10.85;28.04;96217.78;5091876;28;20488;-49
2022/03/23 06:47:34;;;;;;;0.50;0.30;;;;;;;11.13;27.41;96214.09;5092416;28;20448;-49
2022/03/23 06:50:03;;;;;;;3.03;1.63;;;;;;;11.33;27.13;96199.13;5092092;28;20499;-49
2022/03/23 06:52:32;;;;;;;0.43;0.30;;;;;;;11.84;26.43;96216.31;5092167;28;20424;-49
2022/03/23 06:55:01;;;;;;;0.30;0.20;;;;;;;12.55;30.21;96219.38;5092004;28;20851;-49
2022/03/23 06:57:31;;;;;;;0.40;0.30;;;;;;;12.66;28.78;96200.56;5092085;28;20467;-50
2022/03/23 06:59:59;;;;;;;0.30;0.20;;;;;;;13.02;25.09;96200.66;5092278;28;20420;-50
2022/03/23 07:02:28;;;;;;;0.30;0.20;;;;;;;12.31;26.37;96199.59;5091918;28;20528;-50
2022/03/23 07:04:56;;;;;;;0.43;0.40;;;;;;;13.07;25.48;96198.06;5091978;28;20505;-50
2022/03/23 07:07:25;;;;;;;0.40;0.40;;;;;;;12.32;25.02;96194.00;5092307;28;20429;-50
2022/03/23 07:09:52;;;;;;;0.53;0.37;;;;;;;12.68;25.62;96190.47;5091421;28;20670;-53
2022/03/23 07:12:21;;;;;;;0.30;0.20;;;;;;;12.94;25.27;96196.66;5091740;28;20789;-53
2022/03/23 07:14:51;;;;;;;0.40;0.30;;;;;;;12.22;24.42;96199.28;5091496;28;20428;-53
2022/03/23 07:17:19;;;;;;;0.80;0.67;;;;;;;13.10;23.86;96186.88;5091599;28;20888;-53
2022/03/23 07:19:48;;;;;;;24.47;0.67;;;;;;;13.24;23.28;96178.13;5091800;28;20506;-53
2022/03/23 07:22:17;;;;;;;0.83;0.67;;;;;;;14.22;23.36;96189.25;5091632;28;20469;-53
2022/03/23 07:24:46;;;;;;;0.30;0.20;;;;;;;13.50;23.03;96188.78;5091461;28;20933;-53
2022/03/23 07:27:14;;;;;;;0.30;0.20;;;;;;;14.19;23.37;96189.00;5091684;28;20420;-53
2022/03/23 07:29:48;;;;;;;0.40;0.30;;;;;;;13.80;23.14;96122.16;5091854;28;20452;-53
2022/03/23 07:32:18;;;;;;;0.63;0.40;;;;;;;14.47;23.06;96196.44;5091544;28;20440;-53
2022/03/23 07:34:47;;;;;;;0.60;0.60;;;;;;;13.93;23.01;96188.25;5091761;28;20495;-52
2022/03/23 07:37:16;;;;;;;0.30;0.30;;;;;;;13.97;22.42;96183.97;5091340;28;20431;-52
2022/03/23 07:39:44;;;;;;;0.40;0.30;;;;;;;13.51;22.36;96180.53;5095442;28;20485;-52
2022/03/23 07:42:13;;;;;;;0.40;0.37;;;;;;;13.97;22.04;96178.63;5095701;28;20438;-51
2022/03/23 07:44:42;;;;;;;17.90;1.07;;;;;;;13.89;22.51;96190.63;5095550;28;20424;-51
2022/03/23 07:47:11;;;;;;;0.30;0.20;;;;;;;14.84;22.59;96177.31;5095388;28;20479;-51
2022/03/23 07:49:41;;;;;;;0.67;0.67;;;;;;;14.21;22.07;96178.84;5095314;28;20424;-51
2022/03/23 07:52:10;;;;;;;1.07;0.30;;;;;;;14.02;21.56;96170.63;5095589;28;20428;-51
2022/03/23 07:54:39;;;;;;;0.40;0.20;;;;;;;15.02;22.50;96169.47;5095291;28;21002;-51
2022/03/23 07:57:07;;;;;;;0.40;0.40;;;;;;;15.75;20.35;96161.50;5095445;28;20916;-51
2022/03/23 07:59:36;;;;;;;0.50;0.40;;;;;;;15.18;21.10;96154.13;5095054;28;20467;-51
2022/03/23 08:02:05;;;;;;;0.50;0.50;;;;;;;14.85;21.85;96162.91;5095126;28;20431;-51
2022/03/23 08:04:34;;;;;;;0.50;0.30;;;;;;;14.57;21.13;96162.47;5095073;28;20424;-51
2022/03/23 08:07:05;;;;;;;0.30;0.20;;;;;;;14.91;21.97;96149.25;5095103;28;20520;-51
2022/03/23 08:09:33;;;;;;;0.30;0.30;;;;;;;15.05;20.26;96150.22;5094816;28;20510;-51
2022/03/23 08:12:02;;;;;;;3.80;0.40;;;;;;;16.30;20.82;96155.59;5095543;28;20528;-50
2022/03/23 08:14:30;;;;;;;0.40;0.30;;;;;;;15.76;20.34;96141.72;5095448;28;20420;-51
2022/03/23 08:16:59;;;;;;;0.40;0.30;;;;;;;16.35;20.18;96158.22;5095012;28;20471;-51
2022/03/23 08:19:28;;;;;;;0.60;0.37;;;;;;;16.01;20.57;96157.50;5095086;28;20448;-50
2022/03/23 08:21:56;;;;;;;19.23;0.47;;;;;;;15.47;20.22;96138.22;5094846;28;20475;-51
2022/03/23 08:24:28;;;;;;;0.57;0.57;;;;;;;15.52;20.33;96151.53;5095042;28;20475;-51
2022/03/23 08:26:58;;;;;;;1.03;1.03;;;;;;;16.21;19.55;96153.81;5094694;28;20523;-51
2022/03/23 08:29:26;;;;;;;0.60;0.40;;;;;;;16.38;19.92;96154.97;5094719;28;20450;-51
2022/03/23 08:31:55;;;;;;;0.30;0.20;;;;;;;16.55;19.31;96138.47;5094727;28;20456;-51
2022/03/23 08:34:23;;;;;;;0.40;0.40;;;;;;;16.47;19.28;96134.50;5094834;28;20425;-52
2022/03/23 08:36:52;;;;;;;0.80;0.30;;;;;;;16.94;19.31;96140.91;5094524;28;20523;-51
2022/03/23 08:39:20;;;;;;;0.30;0.30;;;;;;;17.14;18.90;96136.06;5094566;28;20424;-51
2022/03/23 08:41:50;;;;;;;0.40;0.30;;;;;;;17.02;19.14;96137.59;5094072;28;20433;-51
2022/03/23 08:44:18;;;;;;;0.40;0.40;;;;;;;16.12;18.93;96134.91;5094620;28;20460;-51
2022/03/23 08:46:47;;;;;;;0.40;0.30;;;;;;;16.75;18.97;96122.13;5094521;28;20932;-51
2022/03/23 08:49:15;;;;;;;0.83;0.40;;;;;;;16.73;20.19;96115.47;5093270;28;21002;-52
2022/03/23 08:51:43;;;;;;;0.40;0.40;;;;;;;15.71;19.01;96123.81;5094305;28;20468;-50
2022/03/23 08:54:12;;;;;;;1.70;0.47;;;;;;;16.01;18.67;96116.59;5094128;28;20452;-51
2022/03/23 08:56:41;;;;;;;0.50;0.30;;;;;;;15.93;19.27;96115.34;5093985;28;20479;-50
2022/03/23 08:59:10;;;;;;;0.40;0.40;;;;;;;15.76;19.09;96129.13;5094268;28;20520;-50
2022/03/23 09:01:39;;;;;;;0.40;0.40;;;;;;;16.11;19.87;96116.50;5094140;28;20489;-50
2022/03/23 09:04:08;;;;;;;1.37;0.60;;;;;;;16.64;19.38;96101.16;5094429;28;20462;-50
2022/03/23 09:06:36;;;;;;;0.50;0.50;;;;;;;16.61;18.68;96099.84;5094096;28;20482;-51
2022/03/23 09:09:04;;;;;;;0.40;0.30;;;;;;;16.31;18.73;96095.66;5093912;28;20500;-51
2022/03/23 09:11:33;;;;;;;0.50;0.30;;;;;;;16.71;18.23;96105.06;5094036;28;20429;-51
2022/03/23 09:14:01;;;;;;;0.40;0.20;;;;;;;17.63;18.98;96102.63;5094346;28;20803;-51
2022/03/23 09:16:31;;;;;;;0.97;0.60;;;;;;;16.84;17.29;96098.22;5093821;28;20531;-51
2022/03/23 09:19:02;;;;;;;0.40;0.30;;;;;;;17.32;17.54;96091.59;5093246;28;20432;-52
2022/03/23 09:21:30;;;;;;;0.50;0.50;;;;;;;17.34;17.80;96070.66;5093863;28;20464;-51
2022/03/23 09:23:59;;;;;;;0.40;0.30;;;;;;;18.41;17.78;96083.72;5094153;28;20436;-51
2022/03/23 09:26:27;;;;;;;0.40;0.30;;;;;;;18.82;16.91;96092.50;5093721;28;20955;-52
2022/03/23 09:28:56;;;;;;;0.33;0.23;;;;;;;18.20;17.85;96086.00;5094006;28;20420;-52
2022/03/23 09:31:25;;;;;;;0.40;0.30;;;;;;;19.58;17.78;96088.09;5093370;28;20428;-52
2022/03/23 09:33:55;;;;;;;0.40;0.30;;;;;;;18.08;17.44;96090.28;5093522;28;20456;-52
2022/03/23 09:39:09;;;;;;;0.40;0.30;;;;;;;18.34;16.56;96091.38;5093941;28;20841;-52
2022/03/23 09:41:38;;;;;;;5.17;0.80;;;;;;;18.70;16.10;96086.06;5093661;28;20500;-52
2022/03/23 09:44:07;;;;;;;0.50;0.40;;;;;;;19.74;16.71;96089.28;5092790;28;20960;-52
2022/03/23 09:46:35;;;;;;;0.50;0.40;;;;;;;18.97;16.74;96092.19;5093744;28;20554;-52
2022/03/23 09:49:06;;;;;;;0.40;0.30;;;;;;;18.27;16.91;96081.03;5093385;28;20911;-52
2022/03/23 09:51:36;;;;;;;0.50;0.50;;;;;;;18.47;17.08;96082.53;5093120;28;20515;-52
2022/03/23 09:54:05;;;;;;;0.37;0.30;;;;;;;17.99;16.60;96078.63;5093280;28;20479;-52
2022/03/23 09:56:34;;;;;;;0.30;0.20;;;;;;;18.18;17.08;96088.19;5093349;28;20495;-51
2022/03/23 09:59:04;;;;;;;0.97;0.40;;;;;;;18.85;16.82;96083.84;5093246;28;20507;-51
2022/03/23 10:02:13;;;;;;;0.50;0.30;;;;;;;20.06;16.74;96080.13;5092690;28;20432;-52
2022/03/23 10:05:32;;;;;;;0.50;0.30;;;;;;;20.39;17.11;96072.50;5087057;28;20432;-52
2022/03/23 10:08:32;;;;;;;0.40;0.30;;;;;;;20.46;16.33;96072.84;5092955;28;20897;-52
2022/03/23 10:11:49;;;;;;;0.60;0.60;;;;;;;18.65;16.83;96062.81;5048845;28;20507;-52
2022/03/23 10:14:58;;;;;;;0.50;0.30;;;;;;;19.47;16.16;96065.25;5093170;28;20464;-52
2022/03/23 10:18:10;;;;;;;0.40;0.30;;;;;;;19.95;16.45;96063.44;5067905;28;20518;-52
2022/03/23 10:20:38;;;;;;;0.30;0.30;;;;;;;20.03;16.25;96060.00;5092691;28;20472;-52
2022/03/23 10:23:11;;;;;;;0.40;0.30;;;;;;;19.89;16.24;96034.28;5092576;28;20416;-52
2022/03/23 10:25:42;;;;;;;0.30;0.30;;;;;;;19.43;16.42;95972.88;5092512;28;20460;-52
2022/03/23 10:28:15;;;;;;;0.50;0.30;;;;;;;19.61;15.62;96047.13;5092547;28;20511;-52
2022/03/23 10:30:47;;;;;;;0.50;0.50;;;;;;;19.47;15.91;96046.41;5092499;28;20883;-52
2022/03/23 10:33:20;;;;;;;0.50;0.50;;;;;;;18.49;16.46;96042.78;5092349;28;20515;-52
2022/03/23 10:35:49;;;;;;;0.40;0.30;;;;;;;20.13;17.49;96046.28;5092219;28;20485;-52
2022/03/23 10:38:20;;;;;;;0.53;0.47;;;;;;;20.47;15.78;96032.13;5092374;28;21030;-52
2022/03/23 10:40:51;;;;;;;1.50;0.77;;;;;;;20.09;16.26;96041.78;5092616;28;20884;-53
2022/03/23 10:43:23;;;;;;;1.13;0.30;;;;;;;18.42;16.57;96040.47;5091891;28;20454;-52
2022/03/23 10:45:53;;;;;;;0.50;0.30;;;;;;;18.83;16.44;96040.41;5092333;28;20476;-52
2022/03/23 10:48:21;;;;;;;0.30;0.20;;;;;;;19.37;16.10;96025.97;5092363;28;20503;-52
2022/03/23 10:50:53;;;;;;;5.50;0.40;;;;;;;19.73;15.92;96033.91;5091486;28;20515;-51
2022/03/23 10:53:32;;;;;;;0.30;0.20;;;;;;;19.94;16.31;96029.56;5092036;28;20440;-52
2022/03/23 10:56:02;;;;;;;0.40;0.30;;;;;;;20.44;16.31;96030.03;5091947;28;20428;-52
2022/03/23 10:58:32;;;;;;;7.30;0.30;;;;;;;20.14;14.41;96036.28;5090084;28;20499;-51
2022/03/23 11:01:03;;;;;;;0.40;0.30;;;;;;;20.29;16.03;96035.09;5092067;28;20454;-51
2022/03/23 11:03:40;;;;;;;0.40;0.30;;;;;;;20.46;15.07;96029.75;5092098;28;20412;-52
2022/03/23 11:06:11;;;;;;;0.53;0.50;;;;;;;20.24;15.36;96031.44;5091298;28;20855;-51
2022/03/23 11:08:43;;;;;;;0.50;0.40;;;;;;;19.30;15.88;96025.56;5091557;28;20558;-50
2022/03/23 11:16:48;;;;;;;0.40;0.30;;;;;;;21.21;14.94;96007.75;5091644;28;21009;-50
2022/03/23 11:19:19;;;;;;;0.63;0.63;;;;;;;21.25;15.08;96009.50;5092055;28;20420;-50
2022/03/23 11:22:14;;;;;;;0.97;0.40;;;;;;;21.10;15.00;96007.28;5091490;28;20950;-51
2022/03/23 11:24:46;;;;;;;0.40;0.30;;;;;;;21.17;14.95;95921.34;5091694;28;20433;-51
2022/03/23 11:27:18;;;;;;;0.40;0.30;;;;;;;21.15;15.08;95990.19;5091967;28;20554;-51
2022/03/23 11:29:48;;;;;;;1.10;0.57;;;;;;;20.65;15.68;95996.03;5091846;28;20428;-50
2022/03/23 11:32:18;;;;;;;0.80;0.60;;;;;;;21.26;15.36;95994.09;5091853;28;20661;-50
2022/03/23 11:34:48;;;;;;;0.30;0.30;;;;;;;21.27;15.17;95990.31;5091688;28;20908;-50
2022/03/23 11:37:18;;;;;;;0.40;0.30;;;;;;;21.66;15.04;95981.94;5090731;28;20471;-50
2022/03/23 11:39:48;;;;;;;0.33;0.23;;;;;;;20.72;15.95;95977.47;5091995;28;20840;-50
2022/03/23 11:42:17;;;;;;;0.40;0.30;;;;;;;21.81;14.69;95981.41;5091648;28;20468;-50
2022/03/23 11:44:47;;;;;;;1.37;0.57;;;;;;;21.00;14.54;95985.25;5091689;28;20420;-50
2022/03/23 11:47:29;;;;;;;0.40;0.30;;;;;;;21.38;15.01;95980.75;5091137;28;20428;-50
2022/03/23 11:50:12;;;;;;;0.80;0.70;;;;;;;20.57;15.33;95977.16;5091454;28;20500;-50
2022/03/23 11:52:45;;;;;;;0.53;0.53;;;;;;;21.03;13.38;95969.22;5091259;28;20439;-50
2022/03/23 11:55:38;;;;;;;0.50;0.40;;;;;;;21.37;13.33;95958.41;5091205;28;20456;-50
2022/03/23 11:58:17;;;;;;;0.40;0.30;;;;;;;21.18;13.95;95968.75;5091268;28;20707;-50
2022/03/23 12:00:50;;;;;;;0.40;0.30;;;;;;;21.19;14.67;95938.00;5090798;28;20924;-50
2022/03/23 12:03:47;;;;;;;0.40;0.30;;;;;;;21.40;14.26;95959.66;5091102;28;20454;-50
2022/03/23 12:06:17;;;;;;;0.40;0.30;;;;;;;22.10;14.39;95954.47;5090642;28;20429;-50
2022/03/23 12:08:51;;;;;;;0.50;0.43;;;;;;;21.76;13.47;95953.81;5090968;28;20903;-50
2022/03/23 12:11:34;;;;;;;0.30;0.20;;;;;;;21.83;13.50;95954.09;5091294;28;20435;-50
2022/03/23 12:14:04;;;;;;;0.40;0.30;;;;;;;21.22;13.23;95950.84;5090835;28;20439;-50